EGHN weather

Isle of Wight / Sandown Airport
Sandown, England, United Kingdom

Public forecast

Using degrees Celsius for public forecast. Weather courtesy of forecast.io.

Closest aviation weather report (METAR) to Isle of Wight / Sandown Airport

Closest report is Southampton Airport, 19.0 nm (35.3 km) NNW. Retrieved 2019/10/18 09:20 UTC (20 minutes ago):

EGHI 180920Z 22010KT 180V250 9999 FEW021 13/09 Q1000

Closest aviation forecast (TAF) to Isle of Wight / Sandown Airport

Forecast is more than 12 hours old.

Closest forecast is Southampton Airport, 19.0 nm (35.3 km) NNW. Retrieved 2016/03/02 12:00 UTC (4 years ago):

TAF EGHI 021104Z 0212/0221 28015G25KT 9999 SCT020 TEMPO 0212/0221 29020G35KT PROB30 TEMPO 0212/0213 4000 SHRA BKN012CB TEMPO 0218/0221 BKN014